Terminal Aerodrome Forecast
Issued by NWS

Home | Current Version | Previous Version | Text Only | Print | Product List | Glossary On
Versions: 1 2 3 4 5 6 7 8 9 10 11 12 13 14 15 16 17 18
000
FTUS42 KMLB 220902 AAA
TAFSFB
TAF AMD
KSFB 220902Z 2209/2306 VRB02KT P6SM BKN005 OVC015
      TEMPO 2209/2212 2SM BR OVC003
     FM221300 34005KT P6SM FEW015 SCT035 BKN250
     FM221700 03008KT P6SM BKN050
     FM230300 04006KT P6SM SCT015 BKN030=

USA.gov is the U.S. government's official web portal to all federal, state and local government web resources and services.